Time,TemperatureF,DewpointF,PressureIn,WindDirection,WindDirectionDegrees,WindSpeedMPH,WindSpeedGustMPH,Humidity,HourlyPrecipIn,Conditions,Clouds,dailyrainin,SoftwareType,DateUTC
2013-11-28 00:00:00,26.1,10.0,30.18,SW,225,5.4,5.4,50,0.00,,,0.00,meteobridge,2013-11-28 06:00:00,
2013-11-28 00:05:00,26.1,10.0,30.19,SW,225,5.4,5.4,50,0.00,,,0.00,meteobridge,2013-11-28 06:05:00,
2013-11-28 00:10:00,26.1,10.4,30.19,SW,225,6.9,9.2,51,0.00,,,0.00,meteobridge,2013-11-28 06:10:00,
2013-11-28 00:15:00,25.7,9.7,30.19,SW,225,7.6,7.6,50,0.00,,,0.00,meteobridge,2013-11-28 06:15:00,
2013-11-28 00:21:00,26.2,10.2,30.19,SW,225,4.5,6.0,50,0.00,,,0.00,meteobridge,2013-11-28 06:21:00,
2013-11-28 00:26:00,26.2,10.2,30.19,South,180,5.4,6.0,50,0.00,,,0.00,meteobridge,2013-11-28 06:26:00,
2013-11-28 00:31:00,25.5,9.9,30.19,South,180,2.2,6.0,51,0.00,,,0.00,meteobridge,2013-11-28 06:31:00,
2013-11-28 00:36:00,25.9,10.8,30.19,South,180,5.4,6.0,52,0.00,,,0.00,meteobridge,2013-11-28 06:36:00,
2013-11-28 00:41:00,25.9,10.8,30.19,South,180,3.8,6.0,52,0.00,,,0.00,meteobridge,2013-11-28 06:41:00,
2013-11-28 00:47:00,25.7,10.6,30.19,SW,225,5.4,5.4,52,0.00,,,0.00,meteobridge,2013-11-28 06:47:00,
2013-11-28 00:52:00,25.9,10.8,30.18,SW,225,6.0,6.0,52,0.00,,,0.00,meteobridge,2013-11-28 06:52:00,
2013-11-28 00:57:00,25.9,10.8,30.18,South,180,6.9,6.9,52,0.00,,,0.00,meteobridge,2013-11-28 06:57:00,
2013-11-28 01:02:00,25.9,11.1,30.18,SW,225,4.5,6.0,53,0.00,,,0.00,meteobridge,2013-11-28 07:02:00,
2013-11-28 01:07:00,25.9,11.1,30.18,South,180,6.9,6.9,53,0.00,,,0.00,meteobridge,2013-11-28 07:07:00,
2013-11-28 01:12:00,26.1,11.3,30.18,SW,225,3.1,6.0,53,0.00,,,0.00,meteobridge,2013-11-28 07:12:00,
2013-11-28 01:18:00,26.6,11.3,30.18,South,180,6.0,10.7,52,0.00,,,0.00,meteobridge,2013-11-28 07:18:00,
2013-11-28 01:23:00,26.6,11.3,30.18,SW,225,6.9,8.3,52,0.00,,,0.00,meteobridge,2013-11-28 07:23:00,
2013-11-28 01:28:00,26.8,11.5,30.17,SW,225,6.9,8.3,52,0.00,,,0.00,meteobridge,2013-11-28 07:28:00,
2013-11-28 01:33:00,26.4,11.7,30.17,South,180,8.3,8.3,53,0.00,,,0.00,meteobridge,2013-11-28 07:33:00,
2013-11-28 01:38:00,27.0,11.7,30.18,South,180,5.4,9.2,52,0.00,,,0.00,meteobridge,2013-11-28 07:38:00,
2013-11-28 01:43:00,27.1,11.8,30.18,SW,225,8.3,8.3,52,0.00,,,0.00,meteobridge,2013-11-28 07:43:00,
2013-11-28 01:49:00,27.5,12.2,30.18,South,180,5.4,8.3,52,0.00,,,0.00,meteobridge,2013-11-28 07:49:00,
2013-11-28 01:54:00,27.3,11.7,30.18,SE,135,3.8,5.4,51,0.00,,,0.00,meteobridge,2013-11-28 07:54:00,
2013-11-28 01:59:00,27.3,11.7,30.18,SW,225,7.6,7.6,51,0.00,,,0.00,meteobridge,2013-11-28 07:59:00,
2013-11-28 02:04:00,27.5,11.7,30.18,SW,225,7.6,7.6,51,0.00,,,0.00,meteobridge,2013-11-28 08:04:00,
2013-11-28 02:09:00,27.1,11.5,30.17,South,180,9.8,9.8,51,0.00,,,0.00,meteobridge,2013-11-28 08:09:00,
2013-11-28 02:14:00,27.9,12.0,30.18,SW,225,9.2,10.7,51,0.00,,,0.00,meteobridge,2013-11-28 08:14:00,
2013-11-28 02:20:00,27.7,11.8,30.17,SW,225,4.5,10.7,51,0.00,,,0.00,meteobridge,2013-11-28 08:20:00,
2013-11-28 02:25:00,27.5,11.7,30.18,SW,225,8.3,9.8,51,0.00,,,0.00,meteobridge,2013-11-28 08:25:00,
2013-11-28 02:30:00,27.7,11.8,30.17,SW,225,6.0,6.9,51,0.00,,,0.00,meteobridge,2013-11-28 08:30:00,
2013-11-28 02:35:00,27.7,11.8,30.17,SW,225,8.3,12.1,51,0.00,,,0.00,meteobridge,2013-11-28 08:35:00,
2013-11-28 02:40:00,27.3,11.7,30.17,South,180,12.1,12.1,51,0.00,,,0.00,meteobridge,2013-11-28 08:40:00,
2013-11-28 02:45:00,27.5,11.7,30.17,South,180,3.8,11.4,51,0.00,,,0.00,meteobridge,2013-11-28 08:45:00,
2013-11-28 02:51:00,27.3,11.7,30.16,SW,225,15.9,15.9,51,0.00,,,0.00,meteobridge,2013-11-28 08:51:00,
2013-11-28 02:56:00,27.3,11.7,30.17,SW,225,10.7,10.7,51,0.00,,,0.00,meteobridge,2013-11-28 08:56:00,
2013-11-28 03:01:00,27.5,11.7,30.17,SW,225,6.9,10.7,51,0.00,,,0.00,meteobridge,2013-11-28 09:01:00,
2013-11-28 03:06:00,27.5,11.7,30.17,SW,225,4.5,8.3,51,0.00,,,0.00,meteobridge,2013-11-28 09:06:00,
2013-11-28 03:11:00,27.1,11.5,30.17,South,180,5.4,6.9,51,0.00,,,0.00,meteobridge,2013-11-28 09:11:00,
2013-11-28 03:16:00,27.1,11.5,30.17,SW,225,5.4,6.9,51,0.00,,,0.00,meteobridge,2013-11-28 09:16:00,
2013-11-28 03:22:00,27.0,11.3,30.17,SW,225,6.0,6.0,51,0.00,,,0.00,meteobridge,2013-11-28 09:22:00,
2013-11-28 03:27:00,27.7,11.8,30.17,SW,225,6.9,13.6,51,0.00,,,0.00,meteobridge,2013-11-28 09:27:00,
2013-11-28 03:32:00,27.5,10.8,30.17,SW,225,6.9,6.9,49,0.00,,,0.00,meteobridge,2013-11-28 09:32:00,
2013-11-28 03:37:00,27.7,10.9,30.17,SW,225,9.2,11.4,49,0.00,,,0.00,meteobridge,2013-11-28 09:37:00,
2013-11-28 03:42:00,27.5,10.8,30.17,South,180,10.7,10.7,49,0.00,,,0.00,meteobridge,2013-11-28 09:42:00,
2013-11-28 03:47:00,27.7,10.6,30.17,SW,225,5.4,7.6,48,0.00,,,0.00,meteobridge,2013-11-28 09:47:00,
2013-11-28 03:53:00,27.3,10.8,30.17,SW,225,3.8,5.4,49,0.00,,,0.00,meteobridge,2013-11-28 09:53:00,
2013-11-28 03:58:00,27.5,10.8,30.17,South,180,7.6,8.3,49,0.00,,,0.00,meteobridge,2013-11-28 09:58:00,
2013-11-28 04:03:00,27.3,11.1,30.17,South,180,5.4,5.4,50,0.00,,,0.00,meteobridge,2013-11-28 10:03:00,
2013-11-28 04:08:00,27.1,10.9,30.17,South,180,6.9,6.9,50,0.00,,,0.00,meteobridge,2013-11-28 10:08:00,
2013-11-28 04:13:00,27.1,10.9,30.17,South,180,6.0,6.0,50,0.00,,,0.00,meteobridge,2013-11-28 10:13:00,
2013-11-28 04:18:00,27.1,11.5,30.17,South,180,5.4,6.0,51,0.00,,,0.00,meteobridge,2013-11-28 10:18:00,
2013-11-28 04:24:00,27.3,11.7,30.16,SW,225,4.5,6.9,51,0.00,,,0.00,meteobridge,2013-11-28 10:24:00,
2013-11-28 04:29:00,27.0,11.3,30.16,South,180,3.8,4.5,51,0.00,,,0.00,meteobridge,2013-11-28 10:29:00,
2013-11-28 04:34:00,27.5,11.7,30.16,West,270,3.8,8.3,51,0.00,,,0.00,meteobridge,2013-11-28 10:34:00,
2013-11-28 04:39:00,27.5,11.7,30.16,SE,135,6.9,6.9,51,0.00,,,0.00,meteobridge,2013-11-28 10:39:00,
2013-11-28 04:44:00,27.7,11.5,30.17,SW,225,4.5,9.2,50,0.00,,,0.00,meteobridge,2013-11-28 10:44:00,
2013-11-28 04:49:00,27.7,11.5,30.16,SW,225,6.9,7.6,50,0.00,,,0.00,meteobridge,2013-11-28 10:49:00,
2013-11-28 04:55:00,28.0,11.3,30.17,SW,225,4.5,8.3,49,0.00,,,0.00,meteobridge,2013-11-28 10:55:00,
2013-11-28 05:00:00,27.5,10.8,30.17,South,180,9.2,9.2,49,0.00,,,0.00,meteobridge,2013-11-28 11:00:00,
2013-11-28 05:05:00,27.7,11.5,30.16,SW,225,7.6,7.6,50,0.00,,,0.00,meteobridge,2013-11-28 11:05:00,
2013-11-28 05:10:00,27.5,11.7,30.16,South,180,5.4,6.9,51,0.00,,,0.00,meteobridge,2013-11-28 11:10:00,
2013-11-28 05:15:00,29.5,15.3,30.16,SW,225,7.6,14.5,55,0.00,,,0.00,meteobridge,2013-11-28 11:15:00,
2013-11-28 05:20:00,29.1,13.6,30.16,SW,225,13.0,20.6,52,0.00,,,0.00,meteobridge,2013-11-28 11:20:00,
2013-11-28 05:26:00,28.4,13.1,30.16,SW,225,13.6,13.6,52,0.00,,,0.00,meteobridge,2013-11-28 11:26:00,
2013-11-28 05:31:00,29.3,13.8,30.17,West,270,9.2,18.3,52,0.00,,,0.00,meteobridge,2013-11-28 11:31:00,
2013-11-28 05:36:00,28.0,10.9,30.16,SW,225,9.8,9.8,48,0.00,,,0.00,meteobridge,2013-11-28 11:36:00,
2013-11-28 05:41:00,28.8,12.9,30.17,West,270,9.2,9.8,51,0.00,,,0.00,meteobridge,2013-11-28 11:41:00,
2013-11-28 05:46:00,28.4,12.6,30.17,South,180,7.6,10.7,51,0.00,,,0.00,meteobridge,2013-11-28 11:46:00,
2013-11-28 05:51:00,28.2,10.6,30.17,SW,225,6.9,6.9,47,0.00,,,0.00,meteobridge,2013-11-28 11:51:00,
2013-11-28 05:57:00,28.6,13.1,30.16,South,180,7.6,11.4,52,0.00,,,0.00,meteobridge,2013-11-28 11:57:00,
2013-11-28 06:02:00,28.0,10.9,30.16,SW,225,3.8,3.8,48,0.00,,,0.00,meteobridge,2013-11-28 12:02:00,
2013-11-28 06:07:00,28.0,10.9,30.17,SW,225,3.8,3.8,48,0.00,,,0.00,meteobridge,2013-11-28 12:07:00,
2013-11-28 06:12:00,30.2,14.2,30.17,SW,225,12.1,16.8,51,0.00,,,0.00,meteobridge,2013-11-28 12:12:00,
2013-11-28 06:17:00,28.9,12.6,30.17,SW,225,9.2,11.4,50,0.00,,,0.00,meteobridge,2013-11-28 12:17:00,
2013-11-28 06:23:00,28.6,12.4,30.17,SW,225,12.1,12.1,50,0.00,,,0.00,meteobridge,2013-11-28 12:23:00,
2013-11-28 06:28:00,28.9,13.1,30.17,SW,225,6.0,9.2,51,0.00,,,0.00,meteobridge,2013-11-28 12:28:00,
2013-11-28 06:33:00,28.8,12.9,30.17,SW,225,3.8,6.9,51,0.00,,,0.00,meteobridge,2013-11-28 12:33:00,
2013-11-28 06:38:00,28.8,12.9,30.17,South,180,4.5,9.2,51,0.00,,,0.00,meteobridge,2013-11-28 12:38:00,
2013-11-28 06:43:00,28.9,12.6,30.18,West,270,11.4,11.4,50,0.00,,,0.00,meteobridge,2013-11-28 12:43:00,
2013-11-28 06:48:00,29.1,12.7,30.17,SW,225,3.8,7.6,50,0.00,,,0.00,meteobridge,2013-11-28 12:48:00,
2013-11-28 06:54:00,29.1,13.3,30.18,SE,135,3.8,5.4,51,0.00,,,0.00,meteobridge,2013-11-28 12:54:00,
2013-11-28 06:59:00,29.1,13.3,30.18,South,180,13.0,13.0,51,0.00,,,0.00,meteobridge,2013-11-28 12:59:00,
2013-11-28 07:04:00,28.8,13.3,30.18,SW,225,3.1,5.4,52,0.00,,,0.00,meteobridge,2013-11-28 13:04:00,
2013-11-28 07:09:00,29.1,13.6,30.17,SW,225,8.3,8.3,52,0.00,,,0.00,meteobridge,2013-11-28 13:09:00,
2013-11-28 07:14:00,29.5,14.0,30.18,SE,135,5.4,7.6,52,0.00,,,0.00,meteobridge,2013-11-28 13:14:00,
2013-11-28 07:19:00,29.7,13.8,30.18,West,270,6.9,8.3,51,0.00,,,0.00,meteobridge,2013-11-28 13:19:00,
2013-11-28 07:25:00,29.5,13.6,30.19,NW,315,4.5,6.0,51,0.00,,,0.00,meteobridge,2013-11-28 13:25:00,
2013-11-28 07:30:00,29.3,13.5,30.19,South,180,5.4,5.4,51,0.00,,,0.00,meteobridge,2013-11-28 13:30:00,
2013-11-28 07:35:00,30.2,13.8,30.19,West,270,8.3,8.3,50,0.00,,,0.00,meteobridge,2013-11-28 13:35:00,
2013-11-28 07:40:00,29.8,14.0,30.19,SW,225,4.5,6.9,51,0.00,,,0.00,meteobridge,2013-11-28 13:40:00,
2013-11-28 07:45:00,30.0,14.0,30.19,SW,225,7.6,7.6,51,0.00,,,0.00,meteobridge,2013-11-28 13:45:00,
2013-11-28 07:50:00,30.2,13.8,30.19,SW,225,6.9,6.9,50,0.00,,,0.00,meteobridge,2013-11-28 13:50:00,
2013-11-28 07:56:00,30.7,14.4,30.19,SW,225,11.4,11.4,50,0.00,,,0.00,meteobridge,2013-11-28 13:56:00,
2013-11-28 08:01:00,31.1,14.2,30.19,SW,225,6.0,6.0,49,0.00,,,0.00,meteobridge,2013-11-28 14:01:00,
2013-11-28 08:06:00,31.1,14.2,30.20,SW,225,6.0,6.0,49,0.00,,,0.00,meteobridge,2013-11-28 14:06:00,
2013-11-28 08:11:00,32.2,14.2,30.19,West,270,6.0,7.6,47,0.00,,,0.00,meteobridge,2013-11-28 14:11:00,
2013-11-28 08:16:00,33.6,15.6,30.20,SW,225,10.7,10.7,47,0.00,,,0.00,meteobridge,2013-11-28 14:16:00,
2013-11-28 08:21:00,33.8,14.7,30.20,West,270,3.1,6.9,45,0.00,,,0.00,meteobridge,2013-11-28 14:21:00,
2013-11-28 08:27:00,34.5,14.9,30.20,SW,225,4.5,6.0,44,0.00,,,0.00,meteobridge,2013-11-28 14:27:00,
2013-11-28 08:32:00,35.4,15.6,30.21,SW,225,3.8,3.8,44,0.00,,,0.00,meteobridge,2013-11-28 14:32:00,
2013-11-28 08:37:00,35.2,14.9,30.21,West,270,3.8,6.9,43,0.00,,,0.00,meteobridge,2013-11-28 14:37:00,
2013-11-28 08:42:00,35.8,14.9,30.22,South,180,10.7,10.7,42,0.00,,,0.00,meteobridge,2013-11-28 14:42:00,
2013-11-28 08:47:00,35.8,14.4,30.22,SW,225,4.5,8.3,41,0.00,,,0.00,meteobridge,2013-11-28 14:47:00,
2013-11-28 08:52:00,36.1,15.3,30.22,SW,225,6.9,6.9,42,0.00,,,0.00,meteobridge,2013-11-28 14:52:00,
2013-11-28 08:58:00,37.0,15.4,30.22,South,180,9.8,9.8,41,0.00,,,0.00,meteobridge,2013-11-28 14:58:00,
2013-11-28 09:03:00,36.1,14.7,30.22,South,180,5.4,7.6,41,0.00,,,0.00,meteobridge,2013-11-28 15:03:00,
2013-11-28 09:08:00,36.9,15.4,30.23,West,270,7.6,7.6,41,0.00,,,0.00,meteobridge,2013-11-28 15:08:00,
2013-11-28 09:13:00,37.4,18.0,30.23,SW,225,6.0,6.0,45,0.00,,,0.00,meteobridge,2013-11-28 15:13:00,
2013-11-28 09:18:00,37.6,18.1,30.23,West,270,4.5,6.9,45,0.00,,,0.00,meteobridge,2013-11-28 15:18:00,
2013-11-28 09:23:00,38.5,19.0,30.23,SW,225,5.4,6.9,45,0.00,,,0.00,meteobridge,2013-11-28 15:23:00,
2013-11-28 09:29:00,38.8,19.4,30.23,North,0,7.6,9.2,45,0.00,,,0.00,meteobridge,2013-11-28 15:29:00,
2013-11-28 09:34:00,39.2,19.0,30.23,West,270,7.6,10.7,44,0.00,,,0.00,meteobridge,2013-11-28 15:34:00,
2013-11-28 09:39:00,40.6,20.5,30.23,West,270,7.6,7.6,44,0.00,,,0.00,meteobridge,2013-11-28 15:39:00,
2013-11-28 09:44:00,40.6,20.5,30.24,West,270,7.6,7.6,44,0.00,,,0.00,meteobridge,2013-11-28 15:44:00,
2013-11-28 09:49:00,41.4,20.5,30.23,West,270,8.3,8.3,43,0.00,,,0.00,meteobridge,2013-11-28 15:49:00,
2013-11-28 09:54:00,42.3,21.4,30.24,SW,225,8.3,8.3,43,0.00,,,0.00,meteobridge,2013-11-28 15:54:00,
2013-11-28 10:00:00,42.6,21.2,30.24,West,270,11.4,11.4,42,0.00,,,0.00,meteobridge,2013-11-28 16:00:00,
2013-11-28 10:05:00,42.6,21.2,30.24,West,270,11.4,11.4,42,0.00,,,0.00,meteobridge,2013-11-28 16:05:00,
2013-11-28 10:10:00,43.3,20.1,30.24,SW,225,6.9,11.4,39,0.00,,,0.00,meteobridge,2013-11-28 16:10:00,
2013-11-28 10:15:00,43.7,21.0,30.24,West,270,8.3,12.1,40,0.00,,,0.00,meteobridge,2013-11-28 16:15:00,
2013-11-28 10:20:00,45.7,23.4,30.24,South,180,13.6,13.6,41,0.00,,,0.00,meteobridge,2013-11-28 16:20:00,
2013-11-28 10:25:00,44.1,21.2,30.24,West,270,9.2,10.7,40,0.00,,,0.00,meteobridge,2013-11-28 16:25:00,
2013-11-28 10:31:00,44.1,21.9,30.24,West,270,8.3,9.2,41,0.00,,,0.00,meteobridge,2013-11-28 16:31:00,
2013-11-28 10:36:00,46.0,23.7,30.24,West,270,9.2,9.2,41,0.00,,,0.00,meteobridge,2013-11-28 16:36:00,
2013-11-28 10:41:00,44.8,20.7,30.24,West,270,11.4,11.4,38,0.00,,,0.00,meteobridge,2013-11-28 16:41:00,
2013-11-28 10:46:00,46.6,23.0,30.24,West,270,7.6,8.3,39,0.00,,,0.00,meteobridge,2013-11-28 16:46:00,
2013-11-28 10:51:00,46.8,23.2,30.24,West,270,8.3,11.4,39,0.00,,,0.00,meteobridge,2013-11-28 16:51:00,
2013-11-28 10:56:00,47.3,23.0,30.24,SW,225,12.1,12.1,38,0.00,,,0.00,meteobridge,2013-11-28 16:56:00,
2013-11-28 11:02:00,47.7,23.4,30.24,SW,225,13.0,13.0,38,0.00,,,0.00,meteobridge,2013-11-28 17:02:00,
2013-11-28 11:07:00,45.9,23.5,30.24,SW,225,9.8,14.5,41,0.00,,,0.00,meteobridge,2013-11-28 17:07:00,
2013-11-28 11:12:00,46.6,24.1,30.24,West,270,9.8,15.2,41,0.00,,,0.00,meteobridge,2013-11-28 17:12:00,
2013-11-28 11:17:00,46.6,24.1,30.24,SW,225,9.8,17.4,41,0.00,,,0.00,meteobridge,2013-11-28 17:17:00,
2013-11-28 11:22:00,46.6,23.5,30.24,West,270,9.2,12.1,40,0.00,,,0.00,meteobridge,2013-11-28 17:22:00,
2013-11-28 11:27:00,48.0,25.5,30.23,West,270,9.8,9.8,41,0.00,,,0.00,meteobridge,2013-11-28 17:27:00,
2013-11-28 11:33:00,48.6,24.8,30.24,NW,315,9.2,9.8,39,0.00,,,0.00,meteobridge,2013-11-28 17:33:00,
2013-11-28 11:38:00,46.6,22.3,30.23,SW,225,8.3,11.4,38,0.00,,,0.00,meteobridge,2013-11-28 17:38:00,
2013-11-28 11:43:00,48.2,24.4,30.23,South,180,12.1,12.1,39,0.00,,,0.00,meteobridge,2013-11-28 17:43:00,
2013-11-28 11:48:00,47.8,24.1,30.23,West,270,6.0,9.8,39,0.00,,,0.00,meteobridge,2013-11-28 17:48:00,
2013-11-28 11:53:00,48.4,24.6,30.23,West,270,5.4,9.2,39,0.00,,,0.00,meteobridge,2013-11-28 17:53:00,
2013-11-28 11:59:00,48.4,24.6,30.23,West,270,6.0,7.6,39,0.00,,,0.00,meteobridge,2013-11-28 17:59:00,
2013-11-28 12:04:00,49.3,25.3,30.23,SW,225,9.2,9.2,39,0.00,,,0.00,meteobridge,2013-11-28 18:04:00,
2013-11-28 12:09:00,47.7,23.9,30.23,West,270,8.3,9.2,39,0.00,,,0.00,meteobridge,2013-11-28 18:09:00,
2013-11-28 12:14:00,47.5,23.7,30.22,SW,225,11.4,11.4,39,0.00,,,0.00,meteobridge,2013-11-28 18:14:00,
2013-11-28 12:19:00,48.9,25.0,30.22,South,180,6.9,8.3,39,0.00,,,0.00,meteobridge,2013-11-28 18:19:00,
2013-11-28 12:24:00,47.5,24.4,30.22,West,270,6.9,9.8,40,0.00,,,0.00,meteobridge,2013-11-28 18:24:00,
2013-11-28 12:29:00,48.0,24.8,30.22,West,270,7.6,7.6,40,0.00,,,0.00,meteobridge,2013-11-28 18:29:00,
2013-11-28 12:34:00,48.6,24.1,30.22,West,270,7.6,9.2,38,0.00,,,0.00,meteobridge,2013-11-28 18:34:00,
2013-11-28 12:40:00,49.6,26.2,30.22,West,270,5.4,8.3,40,0.00,,,0.00,meteobridge,2013-11-28 18:40:00,
2013-11-28 12:45:00,49.3,25.3,30.22,West,270,9.8,9.8,39,0.00,,,0.00,meteobridge,2013-11-28 18:45:00,
2013-11-28 12:50:00,49.8,25.9,30.22,West,270,9.2,9.8,39,0.00,,,0.00,meteobridge,2013-11-28 18:50:00,
2013-11-28 12:55:00,48.7,24.8,30.22,NW,315,11.4,11.4,39,0.00,,,0.00,meteobridge,2013-11-28 18:55:00,
2013-11-28 13:00:00,49.5,25.5,30.22,NW,315,5.4,6.0,39,0.00,,,0.00,meteobridge,2013-11-28 19:00:00,
2013-11-28 13:05:00,49.6,25.7,30.22,NW,315,6.0,9.8,39,0.00,,,0.00,meteobridge,2013-11-28 19:05:00,
2013-11-28 13:11:00,50.7,26.6,30.22,West,270,8.3,8.3,39,0.00,,,0.00,meteobridge,2013-11-28 19:11:00,
2013-11-28 13:16:00,50.0,25.3,30.22,South,180,8.3,8.3,38,0.00,,,0.00,meteobridge,2013-11-28 19:16:00,
2013-11-28 13:21:00,50.0,26.1,30.22,SW,225,10.7,10.7,39,0.00,,,0.00,meteobridge,2013-11-28 19:21:00,
2013-11-28 13:26:00,50.4,26.4,30.22,SW,225,6.9,7.6,39,0.00,,,0.00,meteobridge,2013-11-28 19:26:00,
2013-11-28 13:31:00,52.9,28.0,30.22,West,270,5.4,5.4,38,0.00,,,0.00,meteobridge,2013-11-28 19:31:00,
2013-11-28 13:36:00,52.2,26.1,30.22,NW,315,6.9,6.9,36,0.00,,,0.00,meteobridge,2013-11-28 19:36:00,
2013-11-28 13:42:00,52.0,25.2,30.22,West,270,3.8,8.3,35,0.00,,,0.00,meteobridge,2013-11-28 19:42:00,
2013-11-28 13:47:00,52.7,25.9,30.22,West,270,7.6,7.6,35,0.00,,,0.00,meteobridge,2013-11-28 19:47:00,
2013-11-28 13:52:00,52.3,26.2,30.22,West,270,6.9,6.9,36,0.00,,,0.00,meteobridge,2013-11-28 19:52:00,
2013-11-28 13:57:00,51.3,25.9,30.22,North,0,6.9,6.9,37,0.00,,,0.00,meteobridge,2013-11-28 19:57:00,
2013-11-28 14:02:00,50.9,25.5,30.22,North,0,7.6,7.6,37,0.00,,,0.00,meteobridge,2013-11-28 20:02:00,
2013-11-28 14:07:00,50.7,26.1,30.22,West,270,6.0,7.6,38,0.00,,,0.00,meteobridge,2013-11-28 20:07:00,
2013-11-28 14:13:00,51.6,26.2,30.22,West,270,5.4,7.6,37,0.00,,,0.00,meteobridge,2013-11-28 20:13:00,
2013-11-28 14:18:00,52.0,26.6,30.22,West,270,5.4,6.9,37,0.00,,,0.00,meteobridge,2013-11-28 20:18:00,
2013-11-28 14:23:00,52.7,27.1,30.23,NW,315,8.3,8.3,37,0.00,,,0.00,meteobridge,2013-11-28 20:23:00,
2013-11-28 14:28:00,51.8,27.0,30.23,South,180,6.9,6.9,38,0.00,,,0.00,meteobridge,2013-11-28 20:28:00,
2013-11-28 14:33:00,50.7,26.6,30.23,West,270,6.0,9.8,39,0.00,,,0.00,meteobridge,2013-11-28 20:33:00,
2013-11-28 14:38:00,52.0,27.1,30.23,West,270,7.6,8.3,38,0.00,,,0.00,meteobridge,2013-11-28 20:38:00,
2013-11-28 14:44:00,51.3,28.4,30.23,West,270,5.4,8.3,41,0.00,,,0.00,meteobridge,2013-11-28 20:44:00,
2013-11-28 14:49:00,51.3,26.6,30.23,West,270,6.9,6.9,38,0.00,,,0.00,meteobridge,2013-11-28 20:49:00,
2013-11-28 14:54:00,52.7,28.4,30.24,South,180,7.6,7.6,39,0.00,,,0.00,meteobridge,2013-11-28 20:54:00,
2013-11-28 14:59:00,50.4,26.4,30.24,West,270,6.9,6.9,39,0.00,,,0.00,meteobridge,2013-11-28 20:59:00,
2013-11-28 15:04:00,51.6,28.8,30.24,West,270,6.0,6.0,41,0.00,,,0.00,meteobridge,2013-11-28 21:04:00,
2013-11-28 15:09:00,52.5,27.7,30.24,West,270,2.2,3.8,38,0.00,,,0.00,meteobridge,2013-11-28 21:09:00,
2013-11-28 15:15:00,50.4,26.4,30.25,South,180,5.4,5.4,39,0.00,,,0.00,meteobridge,2013-11-28 21:15:00,
2013-11-28 15:20:00,50.5,26.4,30.24,West,270,4.5,5.4,39,0.00,,,0.00,meteobridge,2013-11-28 21:20:00,
2013-11-28 15:25:00,51.3,27.1,30.25,West,270,3.8,3.8,39,0.00,,,0.00,meteobridge,2013-11-28 21:25:00,
2013-11-28 15:30:00,50.4,26.4,30.25,NW,315,6.9,6.9,39,0.00,,,0.00,meteobridge,2013-11-28 21:30:00,
2013-11-28 15:35:00,50.4,28.2,30.25,West,270,4.5,5.4,42,0.00,,,0.00,meteobridge,2013-11-28 21:35:00,
2013-11-28 15:41:00,50.7,28.4,30.25,West,270,6.0,6.0,42,0.00,,,0.00,meteobridge,2013-11-28 21:41:00,
2013-11-28 15:46:00,50.7,29.1,30.25,West,270,2.2,3.8,43,0.00,,,0.00,meteobridge,2013-11-28 21:46:00,
2013-11-28 15:51:00,49.3,27.1,30.26,West,270,3.8,5.4,42,0.00,,,0.00,meteobridge,2013-11-28 21:51:00,
2013-11-28 15:56:00,50.5,27.7,30.26,West,270,2.2,3.1,41,0.00,,,0.00,meteobridge,2013-11-28 21:56:00,
2013-11-28 16:01:00,50.0,27.1,30.26,West,270,3.8,3.8,41,0.00,,,0.00,meteobridge,2013-11-28 22:01:00,
2013-11-28 16:06:00,50.0,27.1,30.26,West,270,3.8,3.8,41,0.00,,,0.00,meteobridge,2013-11-28 22:06:00,
2013-11-28 16:12:00,48.9,28.0,30.27,West,270,3.1,4.5,44,0.00,,,0.00,meteobridge,2013-11-28 22:12:00,
2013-11-28 16:17:00,48.4,27.5,30.27,West,270,3.8,6.0,44,0.00,,,0.00,meteobridge,2013-11-28 22:17:00,
2013-11-28 16:22:00,47.5,27.7,30.27,West,270,3.1,3.8,46,0.00,,,0.00,meteobridge,2013-11-28 22:22:00,
2013-11-28 16:27:00,46.6,27.5,30.27,West,270,3.8,3.8,47,0.00,,,0.00,meteobridge,2013-11-28 22:27:00,
2013-11-28 16:32:00,45.5,26.4,30.27,NW,315,1.6,3.1,47,0.00,,,0.00,meteobridge,2013-11-28 22:32:00,
2013-11-28 16:37:00,45.1,27.1,30.27,West,270,6.0,6.0,49,0.00,,,0.00,meteobridge,2013-11-28 22:37:00,
2013-11-28 16:43:00,44.4,27.9,30.27,West,270,3.1,3.1,52,0.00,,,0.00,meteobridge,2013-11-28 22:43:00,
2013-11-28 16:48:00,43.7,27.1,30.27,NW,315,1.6,1.6,52,0.00,,,0.00,meteobridge,2013-11-28 22:48:00,
2013-11-28 16:53:00,43.2,27.1,30.27,West,270,0.7,1.6,53,0.00,,,0.00,meteobridge,2013-11-28 22:53:00,
2013-11-28 16:58:00,42.6,27.5,30.28,West,270,0.0,1.6,55,0.00,,,0.00,meteobridge,2013-11-28 22:58:00,
2013-11-28 17:03:00,41.7,27.1,30.28,West,270,0.0,0.0,56,0.00,,,0.00,meteobridge,2013-11-28 23:03:00,
2013-11-28 17:08:00,41.0,27.0,30.28,West,270,0.0,0.0,57,0.00,,,0.00,meteobridge,2013-11-28 23:08:00,
2013-11-28 17:14:00,40.1,27.0,30.28,West,270,0.0,0.0,59,0.00,,,0.00,meteobridge,2013-11-28 23:14:00,
2013-11-28 17:19:00,39.7,27.0,30.28,West,270,0.0,0.0,60,0.00,,,0.00,meteobridge,2013-11-28 23:19:00,
2013-11-28 17:24:00,38.8,27.3,30.28,West,270,0.0,0.0,63,0.00,,,0.00,meteobridge,2013-11-28 23:24:00,
2013-11-28 17:29:00,40.8,29.1,30.28,North,0,0.0,0.0,63,0.00,,,0.00,meteobridge,2013-11-28 23:29:00,
2013-11-28 17:34:00,41.0,28.6,30.29,North,0,0.0,0.0,61,0.00,,,0.00,meteobridge,2013-11-28 23:34:00,
2013-11-28 17:39:00,39.7,27.3,30.29,North,0,0.0,0.0,61,0.00,,,0.00,meteobridge,2013-11-28 23:39:00,
2013-11-28 17:45:00,40.3,28.2,30.29,North,0,0.0,0.0,62,0.00,,,0.00,meteobridge,2013-11-28 23:45:00,
2013-11-28 17:50:00,39.9,28.4,30.29,South,180,0.0,0.0,63,0.00,,,0.00,meteobridge,2013-11-28 23:50:00,
2013-11-28 17:55:00,38.8,27.7,30.29,South,180,0.0,0.0,64,0.00,,,0.00,meteobridge,2013-11-28 23:55:00,
2013-11-28 18:00:00,39.0,28.2,30.29,South,180,0.0,0.0,65,0.00,,,0.00,meteobridge,2013-11-29 00:00:00,
2013-11-28 18:05:00,39.0,28.2,30.30,South,180,0.0,0.0,65,0.00,,,0.00,meteobridge,2013-11-29 00:05:00,
2013-11-28 18:10:00,38.8,28.0,30.30,South,180,0.0,0.0,65,0.00,,,0.00,meteobridge,2013-11-29 00:10:00,
2013-11-28 18:16:00,39.0,28.6,30.30,South,180,0.0,0.0,66,0.00,,,0.00,meteobridge,2013-11-29 00:16:00,
2013-11-28 18:21:00,39.4,28.6,30.31,South,180,0.0,0.0,65,0.00,,,0.00,meteobridge,2013-11-29 00:21:00,
2013-11-28 18:26:00,38.7,27.9,30.31,South,180,0.0,0.0,65,0.00,,,0.00,meteobridge,2013-11-29 00:26:00,
2013-11-28 18:31:00,38.7,28.2,30.31,South,180,0.0,0.0,66,0.00,,,0.00,meteobridge,2013-11-29 00:31:00,
2013-11-28 18:37:00,38.1,27.9,30.31,South,180,0.0,0.0,66,0.00,,,0.00,meteobridge,2013-11-29 00:37:00,
2013-11-28 18:42:00,38.1,27.9,30.31,South,180,0.0,0.0,66,0.00,,,0.00,meteobridge,2013-11-29 00:42:00,
2013-11-28 18:47:00,38.5,28.4,30.32,South,180,0.0,0.0,67,0.00,,,0.00,meteobridge,2013-11-29 00:47:00,
2013-11-28 18:52:00,38.5,28.4,30.32,South,180,0.0,0.0,67,0.00,,,0.00,meteobridge,2013-11-29 00:52:00,
2013-11-28 18:57:00,37.6,27.3,30.32,South,180,0.0,0.0,66,0.00,,,0.00,meteobridge,2013-11-29 00:57:00,
2013-11-28 19:02:00,36.5,25.2,30.32,South,180,0.0,0.0,63,0.00,,,0.00,meteobridge,2013-11-29 01:02:00,
2013-11-28 19:08:00,36.0,25.0,30.32,South,180,0.0,0.0,64,0.00,,,0.00,meteobridge,2013-11-29 01:08:00,
2013-11-28 19:13:00,36.3,25.7,30.33,South,180,0.0,0.0,65,0.00,,,0.00,meteobridge,2013-11-29 01:13:00,
2013-11-28 19:18:00,36.5,26.2,30.33,South,180,0.0,0.0,66,0.00,,,0.00,meteobridge,2013-11-29 01:18:00,
2013-11-28 19:23:00,36.5,26.2,30.33,South,180,0.0,0.0,66,0.00,,,0.00,meteobridge,2013-11-29 01:23:00,
2013-11-28 19:28:00,36.1,25.9,30.33,South,180,0.0,0.0,66,0.00,,,0.00,meteobridge,2013-11-29 01:28:00,
2013-11-28 19:33:00,36.0,25.7,30.33,South,180,0.0,0.0,66,0.00,,,0.00,meteobridge,2013-11-29 01:33:00,
2013-11-28 19:39:00,34.7,24.8,30.34,South,180,0.0,0.0,67,0.00,,,0.00,meteobridge,2013-11-29 01:39:00,
2013-11-28 19:44:00,34.7,25.2,30.34,East,90,0.0,0.0,68,0.00,,,0.00,meteobridge,2013-11-29 01:44:00,
2013-11-28 19:49:00,34.5,25.7,30.34,East,90,0.0,0.0,70,0.00,,,0.00,meteobridge,2013-11-29 01:49:00,
2013-11-28 19:54:00,35.4,27.0,30.34,East,90,0.0,0.0,71,0.00,,,0.00,meteobridge,2013-11-29 01:54:00,
2013-11-28 19:59:00,34.0,25.2,30.34,East,90,0.0,0.0,70,0.00,,,0.00,meteobridge,2013-11-29 01:59:00,
2013-11-28 20:04:00,34.0,25.2,30.34,East,90,0.0,0.0,70,0.00,,,0.00,meteobridge,2013-11-29 02:04:00,
2013-11-28 20:10:00,34.2,26.1,30.34,East,90,0.0,0.0,72,0.00,,,0.00,meteobridge,2013-11-29 02:10:00,
2013-11-28 20:15:00,34.0,25.9,30.34,East,90,0.0,0.0,72,0.00,,,0.00,meteobridge,2013-11-29 02:15:00,
2013-11-28 20:20:00,34.5,26.4,30.34,SE,135,0.0,0.0,72,0.00,,,0.00,meteobridge,2013-11-29 02:20:00,
2013-11-28 20:25:00,34.5,26.4,30.34,SE,135,0.0,0.0,72,0.00,,,0.00,meteobridge,2013-11-29 02:25:00,
2013-11-28 20:30:00,34.5,26.1,30.35,SE,135,0.0,0.0,71,0.00,,,0.00,meteobridge,2013-11-29 02:30:00,
2013-11-28 20:35:00,34.0,25.2,30.34,SE,135,0.0,0.0,70,0.00,,,0.00,meteobridge,2013-11-29 02:35:00,
2013-11-28 20:41:00,34.2,25.7,30.35,SE,135,0.0,0.0,71,0.00,,,0.00,meteobridge,2013-11-29 02:41:00,
2013-11-28 20:46:00,34.3,25.9,30.35,SE,135,0.0,0.0,71,0.00,,,0.00,meteobridge,2013-11-29 02:46:00,
2013-11-28 20:51:00,33.6,25.5,30.35,SE,135,0.0,0.0,72,0.00,,,0.00,meteobridge,2013-11-29 02:51:00,
2013-11-28 20:56:00,34.2,26.1,30.35,SE,135,0.0,0.0,72,0.00,,,0.00,meteobridge,2013-11-29 02:56:00,
2013-11-28 21:01:00,33.3,25.2,30.35,SE,135,0.0,0.0,72,0.00,,,0.00,meteobridge,2013-11-29 03:01:00,
2013-11-28 21:06:00,33.8,25.7,30.35,NE,45,1.6,1.6,72,0.00,,,0.00,meteobridge,2013-11-29 03:06:00,
2013-11-28 21:12:00,32.7,25.0,30.35,East,90,0.0,0.0,73,0.00,,,0.00,meteobridge,2013-11-29 03:12:00,
2013-11-28 21:17:00,32.7,25.0,30.36,East,90,0.0,0.0,73,0.00,,,0.00,meteobridge,2013-11-29 03:17:00,
2013-11-28 21:22:00,32.2,24.4,30.36,SW,225,0.0,0.0,73,0.00,,,0.00,meteobridge,2013-11-29 03:22:00,
2013-11-28 21:27:00,32.5,25.2,30.36,South,180,0.0,0.0,74,0.00,,,0.00,meteobridge,2013-11-29 03:27:00,
2013-11-28 21:32:00,32.5,25.2,30.36,South,180,0.0,0.0,74,0.00,,,0.00,meteobridge,2013-11-29 03:32:00,
2013-11-28 21:37:00,31.6,24.6,30.36,South,180,0.0,0.0,75,0.00,,,0.00,meteobridge,2013-11-29 03:37:00,
2013-11-28 21:43:00,30.7,23.7,30.37,East,90,0.0,0.0,75,0.00,,,0.00,meteobridge,2013-11-29 03:43:00,
2013-11-28 21:48:00,31.1,24.4,30.37,East,90,0.0,0.0,76,0.00,,,0.00,meteobridge,2013-11-29 03:48:00,
2013-11-28 21:53:00,30.9,24.6,30.36,East,90,0.7,0.7,77,0.00,,,0.00,meteobridge,2013-11-29 03:53:00,
2013-11-28 21:58:00,31.5,25.2,30.37,East,90,0.7,0.7,77,0.00,,,0.00,meteobridge,2013-11-29 03:58:00,
2013-11-28 22:03:00,31.8,25.7,30.37,East,90,0.7,0.7,78,0.00,,,0.00,meteobridge,2013-11-29 04:03:00,
2013-11-28 22:08:00,32.2,25.5,30.36,East,90,0.0,0.7,76,0.00,,,0.00,meteobridge,2013-11-29 04:08:00,
2013-11-28 22:14:00,32.9,25.5,30.36,North,0,0.0,0.0,74,0.00,,,0.00,meteobridge,2013-11-29 04:14:00,
2013-11-28 22:19:00,33.3,25.5,30.37,NE,45,1.6,1.6,73,0.00,,,0.00,meteobridge,2013-11-29 04:19:00,
2013-11-28 22:24:00,33.3,24.8,30.37,East,90,1.6,2.2,71,0.00,,,0.00,meteobridge,2013-11-29 04:24:00,
2013-11-28 22:29:00,33.1,24.4,30.37,East,90,1.6,2.2,70,0.00,,,0.00,meteobridge,2013-11-29 04:29:00,
2013-11-28 22:34:00,33.1,24.4,30.37,East,90,1.6,1.6,70,0.00,,,0.00,meteobridge,2013-11-29 04:34:00,
2013-11-28 22:39:00,33.1,24.4,30.37,East,90,0.7,0.7,70,0.00,,,0.00,meteobridge,2013-11-29 04:39:00,
2013-11-28 22:45:00,33.3,24.3,30.37,East,90,1.6,2.2,69,0.00,,,0.00,meteobridge,2013-11-29 04:45:00,
2013-11-28 22:50:00,33.1,24.1,30.38,East,90,0.7,0.7,69,0.00,,,0.00,meteobridge,2013-11-29 04:50:00,
2013-11-28 22:55:00,33.4,24.1,30.38,East,90,1.6,1.6,68,0.00,,,0.00,meteobridge,2013-11-29 04:55:00,
2013-11-28 23:00:00,33.3,23.9,30.38,East,90,1.6,1.6,68,0.00,,,0.00,meteobridge,2013-11-29 05:00:00,
2013-11-28 23:01:00,33.3,23.9,30.38,East,90,1.6,1.6,68,0.00,,,0.00,meteobridge,2013-11-29 05:01:00,
2013-11-28 23:02:00,33.3,23.9,30.38,East,90,1.6,1.6,68,0.00,,,0.00,meteobridge,2013-11-29 05:02:00,
2013-11-28 23:03:00,33.3,23.9,30.38,East,90,0.7,1.6,68,0.00,,,0.00,meteobridge,2013-11-29 05:03:00,
2013-11-28 23:08:00,33.1,23.7,30.38,East,90,1.6,1.6,68,0.00,,,0.00,meteobridge,2013-11-29 05:08:00,
2013-11-28 23:14:00,33.1,23.7,30.38,East,90,0.0,0.7,68,0.00,,,0.00,meteobridge,2013-11-29 05:14:00,
2013-11-28 23:19:00,32.5,23.2,30.38,East,90,0.0,0.0,68,0.00,,,0.00,meteobridge,2013-11-29 05:19:00,
2013-11-28 23:24:00,32.5,23.2,30.38,East,90,1.6,2.2,68,0.00,,,0.00,meteobridge,2013-11-29 05:24:00,
2013-11-28 23:29:00,32.7,23.7,30.38,East,90,1.6,3.1,69,0.00,,,0.00,meteobridge,2013-11-29 05:29:00,
2013-11-28 23:34:00,32.7,23.4,30.38,East,90,2.2,2.2,68,0.00,,,0.00,meteobridge,2013-11-29 05:34:00,
2013-11-28 23:39:00,32.4,23.0,30.38,East,90,1.6,1.6,68,0.00,,,0.00,meteobridge,2013-11-29 05:39:00,
2013-11-28 23:45:00,32.2,22.8,30.38,East,90,2.2,2.2,68,0.00,,,0.00,meteobridge,2013-11-29 05:45:00,
2013-11-28 23:50:00,32.0,23.0,30.38,East,90,0.7,2.2,69,0.00,,,0.00,meteobridge,2013-11-29 05:50:00,
2013-11-28 23:55:00,31.6,23.0,30.38,East,90,1.6,1.6,70,0.00,,,0.00,meteobridge,2013-11-29 05:55:00,